Terminal Aerodrome Forecast
Issued by NWS Sioux Falls, SD

Home | Current Version | Previous Version | Text Only | Print | Product List | Glossary On
Versions: 1 2 3 4 5 6 7 8 9 10 11 12 13 14 15 16 17 18 19 20 21 22 23 24 25 26 27 28 29 30 31 32 33 34
000
FTUS43 KFSD 252320
TAFSUX
TAF
KSUX 252320Z 2600/2624 16009KT P6SM SCT070 OVC200
     FM260300 16010KT 6SM -RASN OVC025
     FM260500 15008KT 2SM -SN OVC015
     FM260900 30013KT 5SM -SN OVC010
     FM261300 31017G27KT P6SM OVC012
     FM261600 32021G30KT P6SM OVC015=

USA.gov is the U.S. government's official web portal to all federal, state and local government web resources and services.